Etusivu
METAR-TAF:

METAR-TAF

Lentoasemat :

İzmir, Turkki

Leveyspiiri: 38-30N, Pituuspiiri: 027-01E, korkeus merenpinnasta: 5 m

METAR: puuttuu

Aika: 11:32 (08:32 UTC)

Sääennuste

Tämä raportti tehtiin 3 tuntia ja 52 minuuttia sitten, kello 04.40 UTC
Ennuste voimassa 14. päivästä klo 06 UTC - 14. päivään klo 15 UTC
Tuuli 7 kn pohjoisen/luoteesta
Näkyvyys 10 km tai enemmän
ei pilviä alle 1500 m:ssä eikä cumulonimbus-pilviä
Tulossa
14. päivästä klo 09 UTC - 14. päivään klo 12 UTC
Tuuli 17 kn lännestä/luoteesta

TAF: LTBL 140440Z 1406/1415 34007KT CAVOK BECMG 1409/1412 30017KT

Säähavainnot ja -ennusteet yli 4000 lentoasemalta (METAR- ja TAF-raportit).

Käytössä olevat sääasemat on merkitty karttaan keltaisilla ja punaisilla pisteillä.

Aseta hiiri pisteen päälle nähdäksesi sääaseman nimen.

Klikkaa sitten nähdäksesi säähavainnot ja -ennusteet.

Kartan vaihtaminen: klikkaa mustalla rastilla varustettuja vihreitä pisteitä, niin voit zoomata sisään; viivalla varustettua vihreää pistettä, niin voit zoomata ulos tai vihreitä nuolia, niin pääset viereisille kartoille.


METAR-TAF: